Charlottesville, VA

12:07 PM EST on February 25, 2017 (GMT -0500)
Off Hydraulic Road | | Change Station

Elev 558 ft 38.08 °N, 78.50 °W | Updated 3 seconds ago

Partly Cloudy
Partly Cloudy
71.7 °F
Feels Like 75 °F
N
2.0
Wind Variable Wind from SW
Gusts 3.0 mph

Today
High -- | Low -- °F
--% Chance of Precip.
Yesterday
High -- | Low -- °F
Precip. -- in
Pressure 29.54 in
Visibility 10.0 miles
Clouds Clear
Heat Index 75 °F
Dew Point 59 °F
Humidity 65%
Rainfall 0.00 in
Snow Depth Not available.
6:50 AM 6:03 PM
Waning Crescent, 1% visible
METAR KCHO 251653Z 19017G24KT 10SM CLR 24/14 A2955 RMK AO2 SLP001 T02390139
Pressure 29.54 in
Visibility 10.0 miles
Clouds Clear
Heat Index 75 °F
Dew Point 59 °F
Humidity 65%
Rainfall 0.00 in
Snow Depth Not available.
6:50 AM 6:03 PM
Waning Crescent, 1% visible
METAR KCHO 251653Z 19017G24KT 10SM CLR 24/14 A2955 RMK AO2 SLP001 T02390139

Get Your Daily Forecast Email!

Thanks for signing up!

Be on the lookout for a verification email in your inbox.

You'll start receiving the daily forecast at 8 AM.

×

10-Day Weather Forecast

Almanac

Astronomy

Feb. 25, 2017 Rise Set
Actual Time
Civil Twilight
Nautical Twilight
Astronomical Twilight
Moon
Length of Visible Light
Length of Day
Tomorrow will be .
, % of the Moon is Illuminated

Today's Extremes

State Highs State Lows

Community

WunderPhotos

Upload Photos

1,962,540 photos uploaded!

WunderBlog® & News

Nearby

Air Quality

  Air Quality AQ Index Pollutant
Not available.

Snow Depth

Station Depth Elevation

Earthquake Activity

City Distance Mag. Time & Date
Minimum magnitude displayed is 2.5.

Coastal Water Temperatures

Place Temperature

Stations

Nearby Weather Stations

Station Location Temp. Windchill Dew Point Humidity Wind Precip. Elev Updated Type
                   

Watches & Warnings

There are currently no watches in effect.